createdAt,value
2023-01-18T00:00:18.175Z,97116.69
2023-01-18T00:02:46.885Z,97121.78
2023-01-18T00:05:14.720Z,97121.66
2023-01-18T00:07:42.337Z,97123.41
2023-01-18T00:10:10.940Z,97123.34
2023-01-18T00:12:38.497Z,97124.22
2023-01-18T00:15:09.185Z,97128.47
2023-01-18T00:17:47.377Z,97120.06
2023-01-18T00:20:15.345Z,97130.22
2023-01-18T00:22:42.966Z,97132.72
2023-01-18T00:25:11.717Z,97126.72
2023-01-18T00:27:39.355Z,97130.13
2023-01-18T00:30:10.966Z,97125.84
2023-01-18T00:32:38.749Z,97126.69
2023-01-18T00:35:08.148Z,97125.78
2023-01-18T00:37:36.482Z,97130.94
2023-01-18T00:40:07.084Z,97131.78
2023-01-18T00:42:51.964Z,97128.47
2023-01-18T00:45:21.030Z,97135.28
2023-01-18T00:47:48.605Z,97131.94
2023-01-18T00:50:16.453Z,97129.38
2023-01-18T00:52:46.206Z,97136.13
2023-01-18T00:55:15.067Z,97132.75
2023-01-18T00:57:43.477Z,97131.97
2023-01-18T01:00:15.020Z,97133.69
2023-01-18T01:02:44.115Z,97130.34
2023-01-18T01:05:35.164Z,97128.72
2023-01-18T01:08:03.413Z,97135.53
2023-01-18T01:10:31.212Z,97138.97
2023-01-18T01:13:16.318Z,97136.44
2023-01-18T01:16:01.876Z,97141.53
2023-01-18T01:18:48.375Z,97149.91
2023-01-18T01:21:33.717Z,97143.91
2023-01-18T01:24:19.100Z,97146.53
2023-01-18T01:26:46.604Z,97151.66
2023-01-18T01:29:14.164Z,97160.13
2023-01-18T01:31:41.734Z,97160.13
2023-01-18T01:34:10.831Z,97154.19
2023-01-18T01:36:38.437Z,97163.56
2023-01-18T01:39:06.965Z,97157.69
2023-01-18T01:41:36.310Z,97166.22
2023-01-18T01:44:27.948Z,97159.41
2023-01-18T01:46:59.432Z,97168.63
2023-01-18T01:49:32.129Z,97174.56
2023-01-18T01:52:03.781Z,97179.66
2023-01-18T01:54:35.448Z,97181.41
2023-01-18T01:57:10.465Z,97180.56
2023-01-18T01:59:48.159Z,97177.22
2023-01-18T02:02:17.589Z,97179.78
2023-01-18T02:04:46.433Z,97181.47
2023-01-18T02:07:14.643Z,97184.00
2023-01-18T02:09:42.604Z,97190.84
2023-01-18T02:12:10.227Z,97192.53
2023-01-18T02:14:37.892Z,97193.31
2023-01-18T02:17:22.693Z,97200.06
2023-01-18T02:20:25.872Z,97206.78
2023-01-18T02:23:22.312Z,97209.22
2023-01-18T02:26:21.741Z,97215.06
2023-01-18T02:28:59.982Z,97211.63
2023-01-18T02:31:35.298Z,97214.13
2023-01-18T02:34:07.639Z,97228.44
2023-01-18T02:36:42.038Z,97225.91
2023-01-18T02:39:23.432Z,97233.53
2023-01-18T02:42:15.000Z,97225.13
2023-01-18T02:45:06.285Z,97228.53
2023-01-18T02:47:34.835Z,97235.38
2023-01-18T02:50:03.593Z,97241.34
2023-01-18T02:52:42.410Z,97238.06
2023-01-18T02:55:15.418Z,97249.06
2023-01-18T02:57:44.247Z,97241.44
2023-01-18T03:00:18.999Z,97254.03
2023-01-18T03:02:49.073Z,97257.34
2023-01-18T03:05:18.098Z,97260.72
2023-01-18T03:07:51.789Z,97253.84
2023-01-18T03:10:19.448Z,97247.94
2023-01-18T03:12:57.517Z,97253.88
2023-01-18T03:15:37.326Z,97246.16
2023-01-18T03:18:11.867Z,97258.78
2023-01-18T03:20:46.942Z,97258.75
2023-01-18T03:23:36.140Z,97253.63
2023-01-18T03:26:06.418Z,97267.97
2023-01-18T03:28:54.038Z,97260.38
2023-01-18T03:31:47.240Z,97263.75
2023-01-18T03:34:22.479Z,97273.97
2023-01-18T03:36:53.350Z,97268.09
2023-01-18T03:39:28.308Z,97274.00
2023-01-18T03:42:00.273Z,97279.06
2023-01-18T03:44:34.418Z,97274.09
2023-01-18T03:47:04.741Z,97277.44
2023-01-18T03:49:33.555Z,97285.91
2023-01-18T03:52:14.012Z,97284.25
2023-01-18T03:54:50.688Z,97290.91
2023-01-18T03:57:24.071Z,97292.53
2023-01-18T03:59:52.563Z,97302.63
2023-01-18T04:02:21.884Z,97307.72
2023-01-18T04:04:49.579Z,97308.38
2023-01-18T04:07:17.227Z,97309.22
2023-01-18T04:09:44.799Z,97304.06
2023-01-18T04:12:12.340Z,97321.69
2023-01-18T04:14:39.930Z,97323.44
2023-01-18T04:17:07.452Z,97331.84
2023-01-18T04:19:36.394Z,97336.09
2023-01-18T04:22:03.996Z,97339.38
2023-01-18T04:24:31.556Z,97341.88
2023-01-18T04:26:59.166Z,97344.44
2023-01-18T04:29:26.889Z,97345.25
2023-01-18T04:31:54.744Z,97356.19
2023-01-18T04:34:22.972Z,97356.91
2023-01-18T04:36:52.522Z,97362.81
2023-01-18T04:39:20.781Z,97365.38
2023-01-18T04:41:48.382Z,97362.81
2023-01-18T04:44:16.160Z,97373.81
2023-01-18T04:46:44.283Z,97379.81
2023-01-18T04:49:15.434Z,97388.19
2023-01-18T04:51:43.915Z,97397.53
2023-01-18T04:54:14.345Z,97396.72
2023-01-18T04:56:42.148Z,97394.06
2023-01-18T04:59:14.200Z,97399.97
2023-01-18T05:01:41.761Z,97399.03
2023-01-18T05:04:09.370Z,97415.94
2023-01-18T05:06:36.927Z,97410.88
2023-01-18T05:09:04.589Z,97416.69
2023-01-18T05:11:33.579Z,97421.72
2023-01-18T05:14:01.073Z,97425.97
2023-01-18T05:16:28.878Z,97435.25
2023-01-18T05:18:56.758Z,97433.47
2023-01-18T05:21:24.386Z,97438.44
2023-01-18T05:23:51.921Z,97437.69
2023-01-18T05:26:21.530Z,97453.75
2023-01-18T05:28:51.249Z,97457.06
2023-01-18T05:31:21.037Z,97462.13
2023-01-18T05:33:48.901Z,97463.84
2023-01-18T05:36:17.017Z,97473.88
2023-01-18T05:38:44.578Z,97473.84
2023-01-18T05:41:12.127Z,97490.84
2023-01-18T05:43:40.428Z,97500.16
2023-01-18T05:46:09.499Z,97491.00
2023-01-18T05:48:37.078Z,97498.56
2023-01-18T05:51:08.763Z,97504.38
2023-01-18T05:53:36.351Z,97509.38
2023-01-18T05:56:08.261Z,97512.72
2023-01-18T05:58:35.937Z,97518.47
2023-01-18T06:01:03.609Z,97521.88
2023-01-18T06:03:32.476Z,97523.34
2023-01-18T06:06:00.098Z,97536.22
2023-01-18T06:08:27.637Z,97532.03
2023-01-18T06:10:55.517Z,97541.34
2023-01-18T06:13:23.689Z,97542.97
2023-01-18T06:15:51.849Z,97562.50
2023-01-18T06:18:19.356Z,97560.25
2023-01-18T06:20:48.288Z,97573.88
2023-01-18T06:23:15.909Z,97575.81
2023-01-18T06:25:44.029Z,97579.91
2023-01-18T06:28:11.561Z,97586.19
2023-01-18T06:30:39.643Z,97598.09
2023-01-18T06:33:08.407Z,97603.63
2023-01-18T06:35:36.359Z,97611.06
2023-01-18T06:38:06.001Z,97608.41
2023-01-18T06:40:33.712Z,97610.09
2023-01-18T06:43:01.676Z,97616.13
2023-01-18T06:45:29.744Z,97613.44
2023-01-18T06:47:57.454Z,97629.19
2023-01-18T06:50:25.589Z,97633.28
2023-01-18T06:52:53.447Z,97633.22
2023-01-18T06:55:22.569Z,97633.50
2023-01-18T06:57:50.089Z,97648.84
2023-01-18T07:00:18.690Z,97645.47
2023-01-18T07:02:46.220Z,97652.47
2023-01-18T07:05:13.790Z,97657.50
2023-01-18T07:07:41.328Z,97655.63
2023-01-18T07:10:10.375Z,97669.03
2023-01-18T07:12:39.285Z,97656.91
2023-01-18T07:15:20.841Z,97672.03
2023-01-18T07:17:50.201Z,97677.81
2023-01-18T07:20:18.160Z,97677.78
2023-01-18T07:22:45.819Z,97686.00
2023-01-18T07:25:18.780Z,97691.78
2023-01-18T07:27:48.736Z,97691.53
2023-01-18T07:30:17.220Z,97704.88
2023-01-18T07:32:49.628Z,97696.78
2023-01-18T07:35:21.913Z,97711.03
2023-01-18T07:37:50.489Z,97707.72
2023-01-18T07:40:18.554Z,97718.66
2023-01-18T07:42:47.577Z,97716.25
2023-01-18T07:45:15.615Z,97720.38
2023-01-18T07:47:43.467Z,97723.28
2023-01-18T07:50:12.905Z,97731.69
2023-01-18T07:52:40.608Z,97727.72
2023-01-18T07:55:08.936Z,97735.91
2023-01-18T07:57:36.460Z,97730.75
2023-01-18T08:00:07.109Z,97734.25
2023-01-18T08:02:40.389Z,97747.84
2023-01-18T08:05:09.877Z,97750.38
2023-01-18T08:07:37.863Z,97755.22
2023-01-18T08:10:06.221Z,97761.16
2023-01-18T08:12:33.864Z,97756.22
2023-01-18T08:15:01.467Z,97767.22
2023-01-18T08:17:30.789Z,97771.44
2023-01-18T08:19:58.339Z,97781.66
2023-01-18T08:22:25.837Z,97780.56
2023-01-18T08:24:53.515Z,97786.50
2023-01-18T08:27:21.100Z,97793.53
2023-01-18T08:29:48.856Z,97797.97
2023-01-18T08:32:16.523Z,97802.38
2023-01-18T08:34:45.963Z,97810.69
2023-01-18T08:37:13.525Z,97809.88
2023-01-18T08:39:41.128Z,97819.03
2023-01-18T08:42:11.000Z,97821.69
2023-01-18T08:44:38.567Z,97833.25
2023-01-18T08:47:06.495Z,97835.88
2023-01-18T08:49:35.583Z,97834.41
2023-01-18T08:52:04.421Z,97836.03
2023-01-18T08:54:31.931Z,97840.63
2023-01-18T08:56:59.452Z,97843.31
2023-01-18T08:59:27.115Z,97843.22
2023-01-18T09:01:54.771Z,97849.13
2023-01-18T09:04:22.763Z,97849.41
2023-01-18T09:06:51.410Z,97852.09
2023-01-18T09:09:20.279Z,97863.88
2023-01-18T09:11:50.910Z,97864.75
2023-01-18T09:14:18.694Z,97869.09
2023-01-18T09:16:46.762Z,97879.13
2023-01-18T09:19:15.369Z,97885.00
2023-01-18T09:21:45.721Z,97891.66
2023-01-18T09:24:13.967Z,97903.81
2023-01-18T09:26:45.081Z,97911.63
2023-01-18T09:29:13.039Z,97911.53
2023-01-18T09:31:40.638Z,97911.63
2023-01-18T09:34:18.867Z,97919.88
2023-01-18T09:36:47.130Z,97926.91
2023-01-18T09:39:14.760Z,97926.31
2023-01-18T09:41:46.881Z,97929.34
2023-01-18T09:44:21.356Z,97932.31
2023-01-18T09:46:54.322Z,97938.88
2023-01-18T09:49:27.926Z,97945.28
2023-01-18T09:52:07.954Z,97946.97
2023-01-18T09:54:42.968Z,97957.66
2023-01-18T09:57:25.555Z,97958.88
2023-01-18T09:59:57.039Z,97954.31
2023-01-18T10:02:30.870Z,97966.34
2023-01-18T10:05:05.307Z,97964.81
2023-01-18T10:07:37.033Z,97975.88
2023-01-18T10:10:05.836Z,97966.19
2023-01-18T10:12:41.359Z,97978.78
2023-01-18T10:15:17.341Z,97979.06
2023-01-18T10:17:46.421Z,97984.59
2023-01-18T10:20:16.350Z,97991.28
2023-01-18T10:22:49.878Z,97984.25
2023-01-18T10:25:25.508Z,97987.91
2023-01-18T10:28:13.738Z,97991.50
2023-01-18T10:30:56.735Z,97990.28
2023-01-18T10:33:26.656Z,97996.94
2023-01-18T10:35:57.560Z,97993.53
2023-01-18T10:38:28.426Z,97999.63
2023-01-18T10:40:58.004Z,98005.88
2023-01-18T10:43:28.767Z,98002.66
2023-01-18T10:45:56.933Z,98005.97
2023-01-18T10:48:28.002Z,98007.03
2023-01-18T10:50:57.649Z,98000.59
2023-01-18T10:53:32.308Z,98012.06
2023-01-18T10:56:05.546Z,98006.16
2023-01-18T10:58:40.771Z,98011.81
2023-01-18T11:01:14.946Z,98008.41
2023-01-18T11:03:47.713Z,98013.81
2023-01-18T11:06:17.000Z,98018.41
2023-01-18T11:08:45.091Z,98024.44
2023-01-18T11:11:18.838Z,98037.47
2023-01-18T11:13:50.315Z,98035.53
2023-01-18T11:16:20.713Z,98037.38
2023-01-18T11:19:04.721Z,98036.22
2023-01-18T11:21:45.530Z,98031.06
2023-01-18T11:24:16.699Z,98046.84
2023-01-18T11:27:03.981Z,98054.50
2023-01-18T11:29:36.334Z,98043.66
2023-01-18T11:32:06.610Z,98048.53
2023-01-18T11:34:36.781Z,98053.84
2023-01-18T11:37:05.521Z,98050.19
2023-01-18T11:39:35.232Z,98060.53
2023-01-18T11:42:23.425Z,98054.09
2023-01-18T11:45:00.543Z,98048.00
2023-01-18T11:47:33.181Z,98059.84
2023-01-18T11:50:20.968Z,98064.06
2023-01-18T11:52:53.133Z,98062.53
2023-01-18T11:55:26.420Z,98064.75
2023-01-18T11:57:54.296Z,98067.59
2023-01-18T12:00:28.164Z,98063.13
2023-01-18T12:03:15.638Z,98068.41
2023-01-18T12:05:47.763Z,98068.13
2023-01-18T12:08:38.233Z,98084.50
2023-01-18T12:11:29.385Z,98076.84
2023-01-18T12:14:03.089Z,98083.91
2023-01-18T12:16:51.413Z,98085.06
2023-01-18T12:19:48.349Z,98082.97
2023-01-18T12:22:44.382Z,98092.34
2023-01-18T12:25:40.419Z,98088.53
2023-01-18T12:28:20.841Z,98096.19
2023-01-18T12:31:05.922Z,98097.84
2023-01-18T12:33:47.600Z,98098.38
2023-01-18T12:36:38.634Z,98103.94
2023-01-18T12:39:15.977Z,98097.72
2023-01-18T12:41:51.801Z,98108.88
2023-01-18T12:44:36.110Z,98117.34
2023-01-18T12:47:24.861Z,98116.78
2023-01-18T12:49:59.493Z,98123.78
2023-01-18T12:52:28.272Z,98120.72
2023-01-18T12:55:00.264Z,98128.84
2023-01-18T12:57:29.678Z,98137.31
2023-01-18T13:00:00.574Z,98142.56
2023-01-18T13:02:33.978Z,98134.88
2023-01-18T13:05:07.794Z,98137.31
2023-01-18T13:07:40.126Z,98145.34
2023-01-18T13:10:14.504Z,98137.75
2023-01-18T13:12:43.377Z,98145.28
2023-01-18T13:15:26.104Z,98143.34
2023-01-18T13:18:02.703Z,98147.41
2023-01-18T13:20:41.954Z,98146.97
2023-01-18T13:23:28.398Z,98163.63
2023-01-18T13:26:07.769Z,98164.66
2023-01-18T13:28:36.868Z,98161.91
2023-01-18T13:31:06.276Z,98170.09
2023-01-18T13:33:36.323Z,98171.28
2023-01-18T13:36:08.052Z,98175.56
2023-01-18T13:38:42.266Z,98175.53
2023-01-18T13:41:12.550Z,98185.69
2023-01-18T13:44:02.653Z,98190.09
2023-01-18T13:46:32.836Z,98194.19
2023-01-18T13:49:02.618Z,98208.75
2023-01-18T13:51:58.772Z,98213.31
2023-01-18T13:54:58.397Z,98217.81
2023-01-18T13:57:26.729Z,98211.19
2023-01-18T13:59:54.517Z,98218.53
2023-01-18T14:02:27.346Z,98223.50
2023-01-18T14:05:08.587Z,98222.38
2023-01-18T14:07:44.872Z,98226.50
2023-01-18T14:10:26.379Z,98234.31
2023-01-18T14:12:55.606Z,98241.34
2023-01-18T14:15:47.917Z,98247.50
2023-01-18T14:18:21.560Z,98246.16
2023-01-18T14:20:58.057Z,98249.00
2023-01-18T14:23:51.186Z,98249.03
2023-01-18T14:26:22.360Z,98247.91
2023-01-18T14:28:53.397Z,98253.13
2023-01-18T14:31:25.531Z,98266.31
2023-01-18T14:33:53.206Z,98269.94
2023-01-18T14:36:22.937Z,98270.72
2023-01-18T14:39:13.621Z,98273.31
2023-01-18T14:41:44.211Z,98284.56
2023-01-18T14:44:17.921Z,98283.06
2023-01-18T14:46:51.069Z,98279.91
2023-01-18T14:49:26.409Z,98291.53
2023-01-18T14:51:54.834Z,98290.75
2023-01-18T14:54:25.929Z,98289.31
2023-01-18T14:57:01.622Z,98291.53
2023-01-18T14:59:31.135Z,98300.22
2023-01-18T15:02:01.196Z,98300.22
2023-01-18T15:04:30.628Z,98302.66
2023-01-18T15:07:00.984Z,98304.72
2023-01-18T15:09:33.250Z,98314.75
2023-01-18T15:12:03.846Z,98323.31
2023-01-18T15:14:34.190Z,98330.06
2023-01-18T15:17:03.120Z,98332.31
2023-01-18T15:19:35.749Z,98335.22
2023-01-18T15:22:05.573Z,98344.31
2023-01-18T15:24:39.317Z,98351.25
2023-01-18T15:27:07.271Z,98351.78
2023-01-18T15:29:38.736Z,98359.44
2023-01-18T15:32:12.705Z,98359.28
2023-01-18T15:34:44.121Z,98365.84
2023-01-18T15:37:16.645Z,98367.66
2023-01-18T15:39:58.288Z,98370.81
2023-01-18T15:42:30.509Z,98377.53
2023-01-18T15:44:59.508Z,98375.31
2023-01-18T15:47:29.408Z,98377.88
2023-01-18T15:49:59.544Z,98387.13
2023-01-18T15:52:39.807Z,98396.38
2023-01-18T15:55:21.867Z,98393.44
2023-01-18T15:58:00.460Z,98396.56
2023-01-18T16:00:31.274Z,98398.03
2023-01-18T16:02:59.377Z,98399.56
2023-01-18T16:05:28.007Z,98398.34
2023-01-18T16:08:18.028Z,98402.28
2023-01-18T16:10:53.271Z,98407.13
2023-01-18T16:13:31.626Z,98413.91
2023-01-18T16:16:13.737Z,98417.50
2023-01-18T16:18:43.757Z,98427.22
2023-01-18T16:21:19.243Z,98433.78
2023-01-18T16:23:49.569Z,98431.84
2023-01-18T16:26:26.634Z,98433.16
2023-01-18T16:28:54.572Z,98440.41
2023-01-18T16:31:23.406Z,98446.13
2023-01-18T16:33:50.921Z,98446.50
2023-01-18T16:36:19.976Z,98458.03
2023-01-18T16:38:47.495Z,98459.44
2023-01-18T16:41:16.838Z,98459.16
2023-01-18T16:43:47.963Z,98469.09
2023-01-18T16:46:15.537Z,98471.44
2023-01-18T16:48:43.099Z,98473.03
2023-01-18T16:51:17.865Z,98474.41
2023-01-18T16:53:45.402Z,98476.69
2023-01-18T16:56:15.216Z,98479.78
2023-01-18T16:58:43.711Z,98488.56
2023-01-18T17:01:15.718Z,98487.81
2023-01-18T17:03:43.872Z,98498.47
2023-01-18T17:06:17.725Z,98502.44
2023-01-18T17:08:46.249Z,98511.47
2023-01-18T17:11:14.385Z,98516.44
2023-01-18T17:13:42.491Z,98522.91
2023-01-18T17:16:16.657Z,98524.38
2023-01-18T17:18:44.588Z,98523.25
2023-01-18T17:21:12.931Z,98523.25
2023-01-18T17:23:40.936Z,98528.97
2023-01-18T17:26:13.752Z,98539.81
2023-01-18T17:28:41.301Z,98547.84
2023-01-18T17:31:09.288Z,98550.22
2023-01-18T17:33:40.291Z,98550.75
2023-01-18T17:36:09.098Z,98559.16
2023-01-18T17:38:37.131Z,98563.56
2023-01-18T17:41:04.898Z,98565.09
2023-01-18T17:43:34.694Z,98575.03
2023-01-18T17:46:04.048Z,98571.44
2023-01-18T17:48:31.699Z,98581.72
2023-01-18T17:51:00.628Z,98585.53
2023-01-18T17:53:28.644Z,98587.69
2023-01-18T17:55:56.287Z,98589.97
2023-01-18T17:58:23.971Z,98583.78
2023-01-18T18:00:51.635Z,98591.19
2023-01-18T18:03:20.256Z,98598.38
2023-01-18T18:05:47.957Z,98605.78
2023-01-18T18:08:17.705Z,98600.66
2023-01-18T18:10:45.277Z,98610.63
2023-01-18T18:13:12.902Z,98618.97
2023-01-18T18:15:46.462Z,98618.75
2023-01-18T18:18:22.658Z,98611.84
2023-01-18T18:20:51.647Z,98618.44
2023-01-18T18:23:20.521Z,98621.69
2023-01-18T18:25:48.218Z,98626.53
2023-01-18T18:28:15.823Z,98633.16
2023-01-18T18:30:48.005Z,98641.38
2023-01-18T18:33:15.976Z,98640.66
2023-01-18T18:35:43.626Z,98643.31
2023-01-18T18:38:15.281Z,98641.59
2023-01-18T18:40:44.173Z,98648.19
2023-01-18T18:43:11.777Z,98649.63
2023-01-18T18:45:40.119Z,98661.19
2023-01-18T18:48:07.949Z,98662.81
2023-01-18T18:50:35.565Z,98674.50
2023-01-18T18:53:03.502Z,98678.53
2023-01-18T18:55:31.241Z,98678.53
2023-01-18T18:58:00.201Z,98683.53
2023-01-18T19:00:28.287Z,98681.66
2023-01-18T19:02:59.922Z,98690.84
2023-01-18T19:05:27.688Z,98693.16
2023-01-18T19:07:55.321Z,98692.44
2023-01-18T19:10:24.155Z,98695.69
2023-01-18T19:12:51.761Z,98702.34
2023-01-18T19:15:20.811Z,98708.91
2023-01-18T19:17:49.706Z,98718.84
2023-01-18T19:20:19.650Z,98716.31
2023-01-18T19:22:47.579Z,98724.72
2023-01-18T19:25:15.193Z,98732.28
2023-01-18T19:27:42.811Z,98727.91
2023-01-18T19:30:18.497Z,98732.00
2023-01-18T19:32:49.077Z,98736.94
2023-01-18T19:35:16.838Z,98738.50
2023-01-18T19:37:45.392Z,98739.94
2023-01-18T19:40:14.177Z,98741.53
2023-01-18T19:42:42.024Z,98742.22
2023-01-18T19:45:13.927Z,98746.41
2023-01-18T19:47:49.145Z,98750.53
2023-01-18T19:50:17.255Z,98754.63
2023-01-18T19:52:45.970Z,98747.84
2023-01-18T19:55:13.721Z,98752.91
2023-01-18T19:57:41.406Z,98756.22
2023-01-18T20:00:10.776Z,98756.22
2023-01-18T20:02:41.497Z,98761.28
2023-01-18T20:05:11.032Z,98764.75
2023-01-18T20:07:38.732Z,98767.19
2023-01-18T20:10:07.481Z,98776.63
2023-01-18T20:12:35.129Z,98778.94
2023-01-18T20:15:02.880Z,98775.03
2023-01-18T20:17:30.433Z,98780.59
2023-01-18T20:19:58.069Z,98777.72
2023-01-18T20:22:27.030Z,98781.88
2023-01-18T20:24:54.941Z,98784.41
2023-01-18T20:27:22.682Z,98791.56
2023-01-18T20:29:50.366Z,98800.59
2023-01-18T20:32:18.460Z,98797.63
2023-01-18T20:34:47.265Z,98804.00
2023-01-18T20:37:16.287Z,98810.63
2023-01-18T20:39:45.288Z,98808.97
2023-01-18T20:42:13.000Z,98802.25
2023-01-18T20:44:41.285Z,98805.56
2023-01-18T20:47:09.796Z,98810.47
2023-01-18T20:49:40.128Z,98808.25
2023-01-18T20:52:07.895Z,98812.50
2023-01-18T20:54:36.324Z,98816.56
2023-01-18T20:57:05.874Z,98823.06
2023-01-18T20:59:33.600Z,98827.44
2023-01-18T21:02:01.616Z,98834.22
2023-01-18T21:04:29.751Z,98833.72
2023-01-18T21:06:58.087Z,98836.69
2023-01-18T21:09:25.848Z,98841.75
2023-01-18T21:11:53.432Z,98838.13
2023-01-18T21:14:22.416Z,98839.66
2023-01-18T21:16:50.222Z,98841.41
2023-01-18T21:19:18.167Z,98847.97
2023-01-18T21:21:45.736Z,98849.09
2023-01-18T21:24:13.387Z,98849.97
2023-01-18T21:26:40.950Z,98855.19
2023-01-18T21:29:08.565Z,98846.34
2023-01-18T21:31:39.453Z,98847.59
2023-01-18T21:34:07.927Z,98849.81
2023-01-18T21:36:35.582Z,98849.47
2023-01-18T21:39:06.562Z,98857.63
2023-01-18T21:41:51.538Z,98857.22
2023-01-18T21:44:37.004Z,98863.66
2023-01-18T21:47:05.894Z,98859.13
2023-01-18T21:50:15.363Z,98867.28
2023-01-18T21:52:56.928Z,98867.22
2023-01-18T21:55:24.539Z,98871.16
2023-01-18T21:58:06.067Z,98867.53
2023-01-18T22:00:33.679Z,98875.75
2023-01-18T22:03:02.653Z,98889.91
2023-01-18T22:05:30.210Z,98885.41
2023-01-18T22:07:58.054Z,98884.63
2023-01-18T22:10:26.986Z,98889.75
2023-01-18T22:12:54.561Z,98888.78
2023-01-18T22:15:23.023Z,98890.31
2023-01-18T22:17:50.593Z,98895.22
2023-01-18T22:20:19.959Z,98907.06
2023-01-18T22:22:48.339Z,98902.72
2023-01-18T22:25:16.041Z,98911.72
2023-01-18T22:27:43.766Z,98912.41
2023-01-18T22:30:12.585Z,98917.41
2023-01-18T22:32:40.094Z,98916.38
2023-01-18T22:35:07.865Z,98923.00
2023-01-18T22:37:36.819Z,98925.22
2023-01-18T22:40:05.487Z,98927.56
2023-01-18T22:42:35.036Z,98930.59
2023-01-18T22:45:04.655Z,98927.13
2023-01-18T22:47:32.392Z,98932.63
2023-01-18T22:49:59.914Z,98933.22
2023-01-18T22:52:27.433Z,98936.41
2023-01-18T22:54:56.378Z,98939.88
2023-01-18T22:57:24.016Z,98937.97
2023-01-18T22:59:51.643Z,98939.78
2023-01-18T23:02:19.349Z,98935.44
2023-01-18T23:04:48.291Z,98934.94
2023-01-18T23:07:17.404Z,98940.63
2023-01-18T23:09:45.031Z,98939.75
2023-01-18T23:12:13.928Z,98940.63
2023-01-18T23:14:59.170Z,98943.91
2023-01-18T23:17:43.122Z,98950.72
2023-01-18T23:20:14.655Z,98951.41
2023-01-18T23:22:42.300Z,98948.25
2023-01-18T23:25:10.280Z,98944.75
2023-01-18T23:27:39.164Z,98951.38
2023-01-18T23:30:07.730Z,98954.84
2023-01-18T23:32:37.183Z,98946.31
2023-01-18T23:35:05.960Z,98952.44
2023-01-18T23:37:33.994Z,98953.28
2023-01-18T23:40:19.314Z,98956.94
2023-01-18T23:43:05.896Z,98962.84
2023-01-18T23:45:51.246Z,98957.78
2023-01-18T23:48:38.011Z,98956.22
2023-01-18T23:51:23.848Z,98957.72
2023-01-18T23:54:08.985Z,98965.31
2023-01-18T23:56:36.681Z,98967.81
2023-01-18T23:59:05.547Z,98973.81
